createdAt,value
2023-02-07T00:03:28.418Z,102928.28
2023-02-07T00:07:30.070Z,102947.63
2023-02-07T00:11:31.837Z,102948.78
2023-02-07T00:15:33.333Z,102954.38
2023-02-07T00:19:34.898Z,102949.81
2023-02-07T00:23:37.620Z,102954.59
2023-02-07T00:27:39.188Z,102955.84
2023-02-07T00:31:40.823Z,102961.44
2023-02-07T00:35:43.104Z,102955.25
2023-02-07T00:39:44.595Z,102948.19
2023-02-07T00:43:47.760Z,102951.56
2023-02-07T00:47:49.467Z,102952.38
2023-02-07T00:51:51.279Z,102964.28
2023-02-07T00:55:53.390Z,102965.91
2023-02-07T00:59:54.862Z,102965.81
2023-02-07T01:03:56.541Z,102977.06
2023-02-07T01:07:58.153Z,102967.47
2023-02-07T01:11:59.623Z,102972.28
2023-02-07T01:16:01.548Z,102959.25
2023-02-07T01:20:03.615Z,102949.50
2023-02-07T01:24:05.813Z,102947.47
2023-02-07T01:28:08.874Z,102956.50
2023-02-07T01:32:10.496Z,102953.84
2023-02-07T01:36:14.818Z,102945.13
2023-02-07T01:40:16.637Z,102956.28
2023-02-07T01:44:24.393Z,102946.69
2023-02-07T01:48:33.308Z,102961.41
2023-02-07T01:52:39.771Z,102960.50
2023-02-07T01:56:45.440Z,102963.03
2023-02-07T02:00:47.911Z,102957.09
2023-02-07T02:04:54.675Z,102955.19
2023-02-07T02:08:59.296Z,102951.47
2023-02-07T02:13:16.752Z,102939.34
2023-02-07T02:17:33.327Z,102941.72
2023-02-07T02:22:12.879Z,102933.06
2023-02-07T02:26:46.201Z,102926.38
2023-02-07T02:31:09.627Z,102930.50
2023-02-07T02:35:22.279Z,102923.41
2023-02-07T02:39:34.296Z,102932.28
2023-02-07T02:43:50.370Z,102938.34
2023-02-07T02:47:52.835Z,102942.41
2023-02-07T02:51:54.366Z,102950.00
2023-02-07T02:56:28.084Z,102938.78
2023-02-07T03:01:01.309Z,102934.84
2023-02-07T03:05:24.600Z,102937.22
2023-02-07T03:09:39.502Z,102937.06
2023-02-07T03:13:56.322Z,102929.50
2023-02-07T03:18:06.102Z,102929.22
2023-02-07T03:22:13.118Z,102922.47
2023-02-07T03:26:19.500Z,102930.88
2023-02-07T03:30:24.371Z,102928.19
2023-02-07T03:34:35.209Z,102937.97
2023-02-07T03:38:37.944Z,102939.88
2023-02-07T03:42:49.565Z,102937.53
2023-02-07T03:46:51.618Z,102931.47
2023-02-07T03:50:53.154Z,102940.69
2023-02-07T03:54:54.625Z,102938.84
2023-02-07T03:58:56.185Z,102933.69
2023-02-07T04:02:57.949Z,102925.84
2023-02-07T04:06:59.412Z,102920.53
2023-02-07T04:11:03.246Z,102917.78
2023-02-07T04:15:06.378Z,102918.75
2023-02-07T04:19:08.095Z,102914.31
2023-02-07T04:23:09.590Z,102908.09
2023-02-07T04:27:11.196Z,102922.31
2023-02-07T04:31:12.725Z,102927.47
2023-02-07T04:35:14.418Z,102929.34
2023-02-07T04:39:16.037Z,102930.94
2023-02-07T04:43:18.137Z,102935.22
2023-02-07T04:47:19.637Z,102939.69
2023-02-07T04:51:21.173Z,102939.69
2023-02-07T04:55:22.752Z,102941.38
2023-02-07T04:59:24.417Z,102955.91
2023-02-07T05:03:26.629Z,102955.75
2023-02-07T05:07:28.200Z,102945.09
2023-02-07T05:11:29.778Z,102947.22
2023-02-07T05:15:31.751Z,102948.66
2023-02-07T05:19:33.825Z,102965.28
2023-02-07T05:23:35.348Z,102964.41
2023-02-07T05:27:37.252Z,102958.16
2023-02-07T05:31:57.455Z,102953.00
2023-02-07T05:36:01.491Z,102955.53
2023-02-07T05:40:03.288Z,102972.06
2023-02-07T05:44:04.949Z,102964.16
2023-02-07T05:54:12.624Z,102983.97
2023-02-07T05:58:14.274Z,102977.78
2023-02-07T06:02:26.315Z,102968.25
2023-02-07T06:06:27.990Z,102952.19
2023-02-07T06:11:04.994Z,102944.78
2023-02-07T06:15:35.856Z,102937.81
2023-02-07T06:19:37.455Z,102937.50
2023-02-07T06:24:30.867Z,102927.59
2023-02-07T06:28:32.514Z,102930.41
2023-02-07T06:32:38.548Z,102933.78
2023-02-07T06:36:40.544Z,102936.38
2023-02-07T06:40:43.011Z,102947.84
2023-02-07T06:44:44.725Z,102953.97
2023-02-07T06:48:46.129Z,102954.53
2023-02-07T06:52:47.753Z,102955.31
2023-02-07T06:56:49.515Z,102952.44
2023-02-07T07:00:51.548Z,102960.28
2023-02-07T07:04:54.819Z,102960.31
2023-02-07T07:08:56.932Z,102970.47
2023-02-07T07:12:58.369Z,102958.38
2023-02-07T07:17:53.037Z,102957.03
2023-02-07T07:21:55.375Z,102962.97
2023-02-07T07:25:56.927Z,102961.81
2023-02-07T07:29:58.563Z,102974.31
2023-02-07T07:34:00.071Z,102973.44
2023-02-07T07:38:01.797Z,102968.53
2023-02-07T07:42:03.409Z,102973.41
2023-02-07T07:46:26.041Z,102980.75
2023-02-07T07:50:27.480Z,102971.91
2023-02-07T07:54:30.151Z,102974.00
2023-02-07T07:58:32.640Z,102974.28
2023-02-07T08:02:34.153Z,102977.69
2023-02-07T08:06:35.851Z,102977.00
2023-02-07T08:10:37.714Z,102979.22
2023-02-07T08:14:39.478Z,102962.50
2023-02-07T08:18:41.309Z,102974.19
2023-02-07T08:22:43.142Z,102965.50
2023-02-07T08:26:44.854Z,102966.44
2023-02-07T08:30:49.609Z,102970.84
2023-02-07T08:34:51.276Z,102963.84
2023-02-07T08:38:52.916Z,102974.22
2023-02-07T08:42:54.695Z,102977.41
2023-02-07T08:46:56.183Z,102982.59
2023-02-07T08:51:00.594Z,102983.97
2023-02-07T08:55:02.185Z,102979.66
2023-02-07T08:59:03.673Z,102986.19
2023-02-07T09:03:05.259Z,102987.09
2023-02-07T09:07:06.884Z,102982.72
2023-02-07T09:11:09.664Z,102986.25
2023-02-07T09:15:11.310Z,102982.91
2023-02-07T09:19:12.786Z,102982.94
2023-02-07T09:23:20.383Z,102974.19
2023-02-07T09:27:21.901Z,102974.78
2023-02-07T09:31:24.569Z,102960.66
2023-02-07T09:35:26.605Z,102960.69
2023-02-07T09:39:28.096Z,102960.66
2023-02-07T09:43:53.629Z,102961.47
2023-02-07T09:48:08.885Z,102955.81
2023-02-07T09:52:29.814Z,102949.09
2023-02-07T09:56:33.028Z,102944.22
2023-02-07T10:00:37.828Z,102942.59
2023-02-07T10:04:43.414Z,102936.38
2023-02-07T10:08:47.151Z,102943.34
2023-02-07T10:13:21.386Z,102933.00
2023-02-07T10:17:44.602Z,102932.41
2023-02-07T10:21:57.316Z,102932.75
2023-02-07T10:26:37.838Z,102932.59
2023-02-07T10:30:56.341Z,102932.16
2023-02-07T10:35:07.589Z,102931.84
2023-02-07T10:39:24.307Z,102924.41
2023-02-07T10:43:32.665Z,102924.25
2023-02-07T10:47:39.410Z,102925.34
2023-02-07T10:51:44.098Z,102930.38
2023-02-07T10:55:47.809Z,102934.97
2023-02-07T10:59:56.954Z,102935.56
2023-02-07T11:03:58.921Z,102929.94
2023-02-07T11:08:19.974Z,102921.34
2023-02-07T11:12:25.400Z,102924.47
2023-02-07T11:16:26.976Z,102914.84
2023-02-07T11:20:39.458Z,102911.75
2023-02-07T11:24:42.594Z,102894.97
2023-02-07T11:28:44.451Z,102890.41
2023-02-07T11:32:55.778Z,102904.19
2023-02-07T11:37:16.385Z,102893.06
2023-02-07T11:41:27.539Z,102886.69
2023-02-07T11:45:31.783Z,102879.78
2023-02-07T11:49:47.735Z,102892.06
2023-02-07T11:54:06.910Z,102882.38
2023-02-07T11:58:11.581Z,102878.63
2023-02-07T12:02:27.346Z,102885.63
2023-02-07T12:06:40.575Z,102879.13
2023-02-07T12:10:46.278Z,102875.34
2023-02-07T12:14:53.428Z,102869.38
2023-02-07T12:19:07.191Z,102856.41
2023-02-07T12:24:10.472Z,102860.81
2023-02-07T12:28:38.064Z,102850.69
2023-02-07T12:32:57.698Z,102849.97
2023-02-07T12:37:31.778Z,102836.88
2023-02-07T12:42:11.004Z,102836.03
2023-02-07T12:46:37.987Z,102828.53
2023-02-07T12:51:16.975Z,102835.72
2023-02-07T12:56:08.660Z,102828.50
2023-02-07T13:01:01.326Z,102828.38
2023-02-07T13:05:41.153Z,102823.53
2023-02-07T13:10:05.182Z,102829.16
2023-02-07T13:14:21.977Z,102824.22
2023-02-07T13:18:57.835Z,102813.59
2023-02-07T13:23:11.370Z,102810.66
2023-02-07T13:27:18.936Z,102804.31
2023-02-07T13:31:50.573Z,102798.88
2023-02-07T13:35:54.425Z,102795.88
2023-02-07T13:40:38.264Z,102798.44
2023-02-07T13:45:01.992Z,102798.44
2023-02-07T13:49:18.621Z,102807.84
2023-02-07T13:53:30.257Z,102781.59
2023-02-07T13:57:53.418Z,102778.50
2023-02-07T14:02:40.079Z,102781.09
2023-02-07T14:06:56.817Z,102776.38
2023-02-07T14:11:30.154Z,102772.34
2023-02-07T14:27:42.852Z,102768.50
2023-02-07T14:31:54.322Z,102769.59
2023-02-07T14:36:12.818Z,102763.28
2023-02-07T14:40:19.231Z,102766.00
2023-02-07T14:44:28.979Z,102760.44
2023-02-07T14:48:39.605Z,102756.75
2023-02-07T14:52:45.168Z,102756.88
2023-02-07T14:56:52.764Z,102757.47
2023-02-07T15:00:59.569Z,102760.13
2023-02-07T15:05:13.921Z,102763.19
2023-02-07T15:09:26.178Z,102763.09
2023-02-07T15:13:44.058Z,102753.25
2023-02-07T15:17:45.899Z,102759.47
2023-02-07T15:21:49.441Z,102760.09
2023-02-07T15:25:51.445Z,102767.31
2023-02-07T15:30:01.334Z,102791.22
2023-02-07T15:34:11.879Z,102789.78
2023-02-07T15:38:27.471Z,102799.50
2023-02-07T15:42:29.027Z,102809.19
2023-02-07T15:46:50.084Z,102818.78
2023-02-07T15:51:08.156Z,102821.25
2023-02-07T15:55:59.829Z,102815.03
2023-02-07T16:00:55.745Z,102828.91
2023-02-07T16:04:59.325Z,102837.59
2023-02-07T16:09:04.405Z,102846.16
2023-02-07T16:13:33.281Z,102841.72
2023-02-07T16:17:43.790Z,102854.63
2023-02-07T16:22:15.026Z,102857.91
2023-02-07T16:37:40.173Z,102870.44
2023-02-07T16:42:09.667Z,102880.81
2023-02-07T16:52:08.049Z,102896.44
2023-02-07T16:56:18.561Z,102895.44
2023-02-07T17:00:25.618Z,102893.53
2023-02-07T17:04:27.173Z,102898.66
2023-02-07T17:09:04.067Z,102895.84
2023-02-07T17:13:05.969Z,102902.63
2023-02-07T17:17:07.658Z,102905.94
2023-02-07T17:21:59.814Z,102897.00
2023-02-07T17:26:02.777Z,102906.31
2023-02-07T17:30:15.098Z,102900.16
2023-02-07T17:34:17.015Z,102895.47
2023-02-07T17:38:18.739Z,102904.09
2023-02-07T17:42:20.455Z,102911.16
2023-02-07T17:46:25.506Z,102899.88
2023-02-07T17:51:16.846Z,102911.22
2023-02-07T17:56:09.601Z,102911.97
2023-02-07T18:00:23.766Z,102917.25
2023-02-07T18:04:25.303Z,102919.22
2023-02-07T18:08:27.026Z,102919.97
2023-02-07T18:13:02.432Z,102919.81
2023-02-07T18:17:53.733Z,102919.53
2023-02-07T18:21:55.468Z,102923.72
2023-02-07T18:25:57.061Z,102921.94
2023-02-07T18:30:03.844Z,102922.31
2023-02-07T18:34:36.295Z,102934.28
2023-02-07T18:39:27.975Z,102937.69
2023-02-07T18:43:35.715Z,102938.56
2023-02-07T18:47:38.860Z,102944.41
2023-02-07T18:51:40.598Z,102948.53
2023-02-07T18:56:18.963Z,102936.72
2023-02-07T19:00:24.466Z,102928.84
2023-02-07T19:10:19.527Z,102940.59
2023-02-07T19:14:28.214Z,102935.28
2023-02-07T19:18:30.027Z,102936.00
2023-02-07T19:23:21.655Z,102927.94
2023-02-07T19:28:13.640Z,102932.53
2023-02-07T19:32:15.345Z,102930.53
2023-02-07T19:36:18.921Z,102927.94
2023-02-07T19:40:20.408Z,102915.59
2023-02-07T19:44:21.869Z,102915.38
2023-02-07T19:48:23.828Z,102910.94
2023-02-07T19:52:25.434Z,102903.94
2023-02-07T19:56:31.922Z,102911.75
2023-02-07T20:00:33.626Z,102918.47
2023-02-07T20:04:35.423Z,102930.41
2023-02-07T20:08:38.874Z,102932.88
2023-02-07T20:13:30.777Z,102930.50
2023-02-07T20:18:22.874Z,102921.03
2023-02-07T20:22:24.366Z,102921.84
2023-02-07T20:27:00.625Z,102919.94
2023-02-07T20:31:53.781Z,102911.16
2023-02-07T20:36:46.830Z,102915.25
2023-02-07T20:40:49.131Z,102910.72
2023-02-07T20:44:51.419Z,102904.72
2023-02-07T20:48:58.673Z,102905.53
2023-02-07T20:53:00.330Z,102909.72
2023-02-07T20:57:02.121Z,102904.53
2023-02-07T21:01:37.790Z,102911.84
2023-02-07T21:06:29.730Z,102918.75
2023-02-07T21:10:31.806Z,102912.50
2023-02-07T21:15:08.218Z,102916.78
2023-02-07T21:19:12.573Z,102913.59
2023-02-07T21:23:14.615Z,102917.59
2023-02-07T21:27:16.574Z,102918.09
2023-02-07T21:31:52.191Z,102924.19
2023-02-07T21:36:45.008Z,102918.72
2023-02-07T21:41:13.214Z,102928.78
2023-02-07T21:45:14.811Z,102922.63
2023-02-07T21:50:06.839Z,102934.63
2023-02-07T21:54:09.602Z,102932.69
2023-02-07T21:58:11.102Z,102936.81
2023-02-07T22:02:14.258Z,102939.47
2023-02-07T22:06:17.147Z,102943.56
2023-02-07T22:10:18.778Z,102947.81
2023-02-07T22:14:21.393Z,102942.63
2023-02-07T22:18:24.286Z,102948.41
2023-02-07T22:22:25.731Z,102947.50
2023-02-07T22:26:28.719Z,102930.00
2023-02-07T22:30:30.916Z,102938.91
2023-02-07T22:34:32.765Z,102935.34
2023-02-07T22:38:34.331Z,102936.78
2023-02-07T22:42:36.063Z,102931.25
2023-02-07T22:46:38.259Z,102931.63
2023-02-07T22:50:41.070Z,102933.22
2023-02-07T22:54:42.915Z,102934.16
2023-02-07T22:58:44.830Z,102921.31
2023-02-07T23:02:46.832Z,102927.75
2023-02-07T23:06:48.342Z,102927.97
2023-02-07T23:10:49.862Z,102928.72
2023-02-07T23:14:51.779Z,102934.53
2023-02-07T23:18:58.508Z,102941.38
2023-02-07T23:23:00.043Z,102944.19
2023-02-07T23:27:01.506Z,102940.78
2023-02-07T23:31:08.508Z,102948.88
2023-02-07T23:35:10.302Z,102947.44
2023-02-07T23:39:11.978Z,102945.78
2023-02-07T23:43:13.490Z,102944.91
2023-02-07T23:47:15.008Z,102939.69
2023-02-07T23:51:16.536Z,102949.22
2023-02-07T23:55:18.315Z,102960.03
2023-02-07T23:59:19.836Z,102960.25
